Timothy, Illinois
Current Conditions -  °F | °C
As of 8:07 AM on Monday 24 Nov 2014 (Local Time) from KMTO Reporting Station
Overcast Overcast  
Wind Chill: 26°   Ceiling: 1400
Heat Index: 36°   Visibility: 10mi
Dew Point: 34°   Wind: 16mph
Humidity: 93%   Direction: 260°W
Pressure: 29.43"   Gusts: 32mph
Location:  39.2272°N, 88.1132°W
Report Text: KMTO 241407Z AUTO 26014G28KT 10SM OVC014 02/01 A2943 RMK AO2 PK WND 28028/1358 PRESRR T00220011
Loading
Personal Weather Stations






























Interactive Weather Map New forecast layout! Learn more

10-Day Weather Forecast

Advertisements
Track Severe Weather on mobile